Current Conditions
Mostly Scattered
Clouds



Pressure
1008.92 (hPa) - 29.79 (inHG)
Visibility

10.0 (km) - 6.2 (miles)
   Temperature
14  °C
57°F
12  °C
Dewpoint
88  %
 Humidity
   Wind Speed
10  km/h
5  kts
6  mph
2.7  m/s
   Wind Direction
 90°
Due East
   Airport Data
EHLW
Location Leeuwarden Air Base 10 km (6.22 mi)
Metar :EHLW 110725Z AUTO 09005KT 360V140 9999 SCT092/// BKN097/// OVC100/// 14/12 Q1009 RE// BLACKBLU
Tue 11th May 09:25 am
   Raw Metar Info
Raw METAR is the most common format in the world for the transmission of observational weather data. It is highly standardized through the International Civil Aviation Organization (ICAO), which allows it to be understood throughout most of the world.
   API Info
Data Provided by
https://www.checkwx.com/weather/EHLW
   © Info
CSS/SVG/PHP scripts were developed by weather34.com for use in the weather34 template © 2015-2021

Guide Info provided by Metar-Wikipedia